Terminal Aerodrome Forecast
Issued by NWS

Home | Current Version | Previous Version | Text Only | Print | Product List | Glossary On
Versions: 1 2 3 4 5 6 7 8 9 10 11 12 13 14 15 16 17 18 19 20 21 22 23
000
FTUS43 KDMX 220241 AAA
TAFFOD
TAF AMD
KFOD 220241Z 2203/2224 03003KT P6SM SCT035 BKN045
     FM220600 VRB03KT 3SM BR BKN009
     FM220800 VRB03KT 1 1/2SM BR BKN007
     FM221000 VRB03KT 1/2SM FG BKN004
     FM221300 VRB03KT 4SM BR SCT006
     FM221500 12005KT P6SM SCT040=

USA.gov is the U.S. government's official web portal to all federal, state and local government web resources and services.